Time;durP1;ratioP1;P1;durP2;ratioP2;P2;SDS_P1;SDS_P2;PMS_P1;PMS_P2;Temp;Humidity;BMP_temperature;BMP_pressure;BME280_temperature;BME280_humidity;BME280_pressure;Samples;Min_cycle;Max_cycle;Signal;HPM_P1;HPM_P2
2023/04/02 00:00:19;;;;;;;1.33;0.77;;;21.90;55.60;;;;;;5028717;28;20507;-76
2023/04/02 00:03:00;;;;;;;1.30;1.20;;;21.90;55.70;;;;;;5030199;28;20468;-77
2023/04/02 00:05:49;;;;;;;1.47;1.37;;;21.90;55.70;;;;;;5030351;28;20937;-76
2023/04/02 00:08:22;;;;;;;1.27;1.00;;;21.90;55.70;;;;;;5034048;28;20476;-77
2023/04/02 00:10:52;;;;;;;1.53;0.80;;;21.80;55.70;;;;;;5034479;28;20529;-78
2023/04/02 00:13:28;;;;;;;1.10;1.00;;;21.80;55.80;;;;;;5028178;28;20470;-81
2023/04/02 00:15:58;;;;;;;1.57;1.10;;;21.80;55.80;;;;;;5026044;28;20537;-76
2023/04/02 00:18:28;;;;;;;1.33;1.20;;;21.80;55.80;;;;;;5033997;28;20450;-75
2023/04/02 00:21:03;;;;;;;0.90;0.90;;;21.80;55.80;;;;;;5033971;28;20920;-76
2023/04/02 00:23:31;;;;;;;0.93;0.90;;;21.80;55.80;;;;;;5033918;28;20472;-76
2023/04/02 00:25:59;;;;;;;1.23;1.13;;;21.80;55.80;;;;;;5033517;28;20451;-76
2023/04/02 00:28:27;;;;;;;0.93;0.90;;;21.80;55.80;;;;;;5031811;28;20597;-76
2023/04/02 00:30:59;;;;;;;0.80;0.80;;;21.80;55.80;;;;;;5033693;28;20453;-76
2023/04/02 00:33:31;;;;;;;1.20;1.10;;;21.80;55.80;;;;;;5033023;28;20434;-75
2023/04/02 00:35:59;;;;;;;1.30;1.13;;;21.80;55.80;;;;;;5034074;28;20438;-76
2023/04/02 00:38:31;;;;;;;2.20;1.10;;;21.80;55.80;;;;;;5034063;28;20514;-77
2023/04/02 00:41:03;;;;;;;1.17;1.17;;;21.90;55.70;;;;;;5033593;28;20450;-76
2023/04/02 00:43:36;;;;;;;1.00;1.00;;;21.80;55.70;;;;;;5014469;28;20483;-76
2023/04/02 00:46:13;;;;;;;0.90;0.90;;;21.90;55.70;;;;;;5033770;28;20443;-77
2023/04/02 00:48:48;;;;;;;1.00;1.00;;;21.90;55.70;;;;;;5015454;28;20488;-77
2023/04/02 00:51:22;;;;;;;0.90;0.90;;;21.90;55.70;;;;;;5012134;28;20491;-77
2023/04/02 00:53:52;;;;;;;1.10;1.07;;;21.90;55.70;;;;;;5013409;28;20462;-77
2023/04/02 00:56:26;;;;;;;1.43;1.00;;;21.90;55.70;;;;;;5013894;28;20431;-76
2023/04/02 00:58:56;;;;;;;1.73;1.10;;;21.90;55.70;;;;;;5011826;28;20525;-76
2023/04/02 01:01:27;;;;;;;1.10;1.00;;;21.90;55.60;;;;;;5014070;28;20451;-76
2023/04/02 01:03:59;;;;;;;1.07;1.07;;;21.80;55.60;;;;;;5011720;28;20447;-76
2023/04/02 01:06:30;;;;;;;2.80;0.93;;;21.90;55.70;;;;;;5013118;28;20428;-75
2023/04/02 01:09:12;;;;;;;1.60;1.03;;;21.80;55.70;;;;;;5013120;28;20473;-76
2023/04/02 01:11:57;;;;;;;1.50;1.10;;;21.80;55.70;;;;;;5011970;28;20863;-76
2023/04/02 01:14:41;;;;;;;1.30;1.10;;;21.80;55.70;;;;;;5011158;28;20448;-75
2023/04/02 01:17:18;;;;;;;1.30;1.20;;;21.80;55.70;;;;;;5011824;28;20930;-76
2023/04/02 01:20:23;;;;;;;0.60;0.60;;;21.80;55.70;;;;;;5010162;28;20981;-76
2023/04/02 01:22:56;;;;;;;0.90;0.90;;;21.80;55.70;;;;;;4993241;28;20462;-79
2023/04/02 01:25:30;;;;;;;1.20;1.10;;;21.80;55.70;;;;;;5008741;28;20972;-76
2023/04/02 01:28:06;;;;;;;1.30;1.20;;;21.80;55.70;;;;;;5012139;28;20570;-76
2023/04/02 01:30:37;;;;;;;0.80;0.80;;;21.80;55.70;;;;;;5001170;28;20495;-76
2023/04/02 01:33:05;;;;;;;1.10;0.80;;;21.80;55.70;;;;;;5005417;28;20460;-76
2023/04/02 01:35:39;;;;;;;0.77;0.73;;;21.80;55.70;;;;;;5012421;28;20529;-77
2023/04/02 01:38:14;;;;;;;1.07;1.00;;;21.80;55.70;;;;;;5012490;28;20451;-78
2023/04/02 01:40:48;;;;;;;0.83;0.83;;;21.80;55.70;;;;;;5012840;28;20529;-76
2023/04/02 01:43:24;;;;;;;2.30;1.33;;;21.80;55.70;;;;;;5011389;28;20462;-76
2023/04/02 01:45:53;;;;;;;1.03;1.00;;;21.80;55.70;;;;;;5009352;28;20535;-82
2023/04/02 01:48:26;;;;;;;1.10;1.00;;;21.80;55.60;;;;;;5010862;28;20487;-80
2023/04/02 01:50:56;;;;;;;0.70;0.70;;;21.80;55.60;;;;;;5013807;28;20436;-76
2023/04/02 01:53:29;;;;;;;1.03;0.90;;;21.80;55.60;;;;;;5013061;28;20466;-75
2023/04/02 01:55:59;;;;;;;0.90;0.90;;;21.80;55.70;;;;;;5010587;28;20459;-75
2023/04/02 01:58:30;;;;;;;0.90;0.87;;;21.80;55.70;;;;;;5011675;28;20466;-79
2023/04/02 02:01:05;;;;;;;1.30;0.70;;;21.80;55.70;;;;;;5029444;28;20486;-75
2023/04/02 02:03:43;;;;;;;0.90;0.90;;;21.80;55.70;;;;;;5012967;28;20464;-75
2023/04/02 02:06:14;;;;;;;0.70;0.70;;;21.80;55.70;;;;;;5013731;28;20971;-76
2023/04/02 02:08:47;;;;;;;0.77;0.77;;;21.80;55.70;;;;;;5030906;28;20512;-75
2023/04/02 02:11:18;;;;;;;0.90;0.90;;;21.80;55.70;;;;;;5013911;28;20918;-79
2023/04/02 02:13:48;;;;;;;1.03;0.90;;;21.80;55.70;;;;;;5030587;28;20926;-76
2023/04/02 02:16:18;;;;;;;1.00;0.90;;;21.80;55.70;;;;;;5012583;28;20451;-75
2023/04/02 02:18:51;;;;;;;1.40;1.20;;;21.80;55.70;;;;;;5030631;28;20443;-75
2023/04/02 02:21:34;;;;;;;1.33;1.13;;;21.80;55.70;;;;;;5031663;28;20430;-76
2023/04/02 02:24:04;;;;;;;1.57;1.13;;;21.80;55.60;;;;;;5030769;28;21025;-76
2023/04/02 02:26:35;;;;;;;0.83;0.80;;;21.80;55.60;;;;;;5012961;28;20592;-75
2023/04/02 02:29:06;;;;;;;1.80;0.97;;;21.80;55.60;;;;;;5029490;28;20474;-75
2023/04/02 02:31:40;;;;;;;1.27;1.03;;;21.80;55.60;;;;;;5030855;28;20444;-76
2023/04/02 02:34:15;;;;;;;0.90;0.90;;;21.80;55.60;;;;;;5023183;28;20442;-76
2023/04/02 02:36:49;;;;;;;1.00;0.90;;;21.80;55.60;;;;;;4993600;28;20481;-78
2023/04/02 02:39:24;;;;;;;1.20;1.00;;;21.80;55.60;;;;;;4997378;28;21044;-76
2023/04/02 02:41:57;;;;;;;1.20;1.10;;;21.80;55.60;;;;;;5012873;28;20928;-80
2023/04/02 02:44:30;;;;;;;1.20;1.00;;;21.80;55.60;;;;;;5012544;28;20508;-76
2023/04/02 02:47:03;;;;;;;0.80;0.80;;;21.80;55.60;;;;;;5013003;28;20458;-76
2023/04/02 02:49:34;;;;;;;1.20;1.10;;;21.80;55.70;;;;;;5030286;28;20472;-75
2023/04/02 02:52:15;;;;;;;0.73;0.73;;;21.80;55.70;;;;;;4992227;28;1119775;-83
2023/04/02 02:54:56;;;;;;;0.80;0.70;;;21.80;55.60;;;;;;4993633;28;20204;-77
2023/04/02 02:57:32;;;;;;;0.80;0.80;;;21.80;55.60;;;;;;4993850;28;20467;-85
2023/04/02 03:00:03;;;;;;;1.13;0.70;;;21.80;55.60;;;;;;5008464;28;21255;-76
2023/04/02 03:02:38;;;;;;;1.30;1.20;;;21.80;55.50;;;;;;5013507;28;20463;-78
2023/04/02 03:05:09;;;;;;;1.00;1.00;;;21.80;55.50;;;;;;5012308;28;20474;-76
2023/04/02 03:07:38;;;;;;;0.90;0.90;;;21.80;55.50;;;;;;5013638;28;20474;-75
2023/04/02 03:10:15;;;;;;;0.73;0.70;;;21.80;55.50;;;;;;5030678;28;20500;-76
2023/04/02 03:12:50;;;;;;;1.10;1.10;;;21.80;55.50;;;;;;5013233;28;20470;-76
2023/04/02 03:15:25;;;;;;;0.97;0.97;;;21.80;55.50;;;;;;5012339;28;21019;-81
2023/04/02 03:18:01;;;;;;;1.83;0.80;;;21.70;55.50;;;;;;5013334;28;20473;-78
2023/04/02 03:20:37;;;;;;;1.40;1.00;;;21.70;55.50;;;;;;5013041;28;20550;-76
2023/04/02 03:23:15;;;;;;;1.23;0.80;;;21.80;55.50;;;;;;5012817;28;20459;-76
2023/04/02 03:25:53;;;;;;;0.90;0.80;;;21.70;55.50;;;;;;5013408;28;20553;-78
2023/04/02 03:28:27;;;;;;;1.17;1.00;;;21.70;55.60;;;;;;5013191;28;20595;-76
2023/04/02 03:31:02;;;;;;;1.13;0.93;;;21.70;55.50;;;;;;5013314;28;20484;-75
2023/04/02 03:33:35;;;;;;;2.43;0.80;;;21.80;55.50;;;;;;5016870;28;20548;-77
2023/04/02 03:36:17;;;;;;;0.70;0.67;;;21.80;55.40;;;;;;5034817;28;20431;-76
2023/04/02 03:38:50;;;;;;;0.80;0.70;;;21.80;55.40;;;;;;5016458;28;20453;-76
2023/04/02 03:41:24;;;;;;;1.17;0.90;;;21.80;55.40;;;;;;5017294;28;20977;-76
2023/04/02 03:44:00;;;;;;;0.70;0.70;;;21.80;55.30;;;;;;5015366;28;20450;-76
2023/04/02 03:46:34;;;;;;;1.30;1.20;;;21.70;55.30;;;;;;5001601;28;20489;-76
2023/04/02 03:49:09;;;;;;;0.93;0.83;;;21.70;55.30;;;;;;5021880;28;20487;-75
2023/04/02 03:51:44;;;;;;;1.30;1.20;;;21.70;55.30;;;;;;5016954;28;20479;-76
2023/04/02 03:54:15;;;;;;;1.10;1.00;;;21.70;55.30;;;;;;5034234;28;20459;-76
2023/04/02 03:56:46;;;;;;;1.03;1.00;;;21.70;55.40;;;;;;5027601;28;20981;-79
2023/04/02 03:59:31;;;;;;;0.83;0.83;;;21.70;55.30;;;;;;5014532;28;20451;-76
2023/04/02 04:02:08;;;;;;;0.73;0.73;;;21.70;55.40;;;;;;5016581;28;20446;-75
2023/04/02 04:04:41;;;;;;;0.97;0.80;;;21.70;55.40;;;;;;5011324;28;20454;-76
2023/04/02 04:07:16;;;;;;;0.77;0.77;;;21.70;55.40;;;;;;5014950;28;20463;-76
2023/04/02 04:09:46;;;;;;;0.70;0.70;;;21.70;55.40;;;;;;5013981;28;20474;-78
2023/04/02 04:12:23;;;;;;;0.93;0.93;;;21.70;55.30;;;;;;5024278;28;20504;-77
2023/04/02 04:14:56;;;;;;;0.67;0.67;;;21.70;55.30;;;;;;5015691;28;20491;-77
2023/04/02 04:17:33;;;;;;;1.53;1.10;;;21.70;55.30;;;;;;5034109;28;20451;-77
2023/04/02 04:20:15;;;;;;;0.97;0.80;;;21.70;55.30;;;;;;5015982;28;20515;-80
2023/04/02 04:22:44;;;;;;;0.73;0.73;;;21.70;55.30;;;;;;5016450;28;20508;-81
2023/04/02 04:25:22;;;;;;;0.83;0.80;;;21.70;55.20;;;;;;5016050;28;20451;-76
2023/04/02 04:28:04;;;;;;;0.80;0.80;;;21.70;55.30;;;;;;5015117;28;20475;-76
2023/04/02 04:30:43;;;;;;;0.50;0.50;;;21.70;55.30;;;;;;5013289;28;20474;-77
2023/04/02 04:33:21;;;;;;;0.80;0.80;;;21.70;55.30;;;;;;5026727;28;21305;-76
2023/04/02 04:35:57;;;;;;;0.50;0.50;;;21.70;55.30;;;;;;5015855;28;20459;-75
2023/04/02 04:38:31;;;;;;;2.83;0.83;;;21.70;55.30;;;;;;5015562;28;20463;-76
2023/04/02 04:41:10;;;;;;;1.10;1.00;;;21.70;55.30;;;;;;4997243;28;20455;-76
2023/04/02 04:43:45;;;;;;;1.07;0.77;;;21.70;55.30;;;;;;4995331;28;21073;-75
2023/04/02 04:46:18;;;;;;;0.90;0.70;;;21.70;55.30;;;;;;5013286;28;20492;-76
2023/04/02 04:48:54;;;;;;;0.70;0.70;;;21.70;55.30;;;;;;5015760;28;20469;-76
2023/04/02 04:51:29;;;;;;;0.97;0.93;;;21.70;55.30;;;;;;5015561;28;20502;-78
2023/04/02 04:53:58;;;;;;;0.60;0.60;;;21.70;55.20;;;;;;5015142;28;20547;-76
2023/04/02 04:56:31;;;;;;;0.93;0.70;;;21.70;55.20;;;;;;5015830;28;20471;-77
2023/04/02 04:59:18;;;;;;;1.10;1.00;;;21.70;55.20;;;;;;5013004;28;20460;-76
2023/04/02 05:01:53;;;;;;;1.13;0.80;;;21.70;55.20;;;;;;5011788;28;20524;-77
2023/04/02 05:04:29;;;;;;;0.83;0.70;;;21.70;55.20;;;;;;5015428;28;20450;-76
2023/04/02 05:07:06;;;;;;;0.80;0.80;;;21.70;55.20;;;;;;5015335;28;20509;-77
2023/04/02 05:09:38;;;;;;;0.60;0.60;;;21.70;55.20;;;;;;5014853;28;20985;-77
2023/04/02 05:12:16;;;;;;;0.40;0.40;;;21.70;55.30;;;;;;5015946;28;20460;-76
2023/04/02 05:14:51;;;;;;;1.23;0.70;;;21.70;55.30;;;;;;5012562;28;20970;-76
2023/04/02 05:17:25;;;;;;;0.70;0.60;;;21.70;55.30;;;;;;5027090;28;20478;-75
2023/04/02 05:19:59;;;;;;;1.60;0.50;;;21.70;55.30;;;;;;4995648;28;20876;-77
2023/04/02 05:22:37;;;;;;;1.07;0.63;;;21.70;55.20;;;;;;4995255;28;20458;-77
2023/04/02 05:25:21;;;;;;;0.90;0.70;;;21.70;55.20;;;;;;4995577;28;20455;-75
2023/04/02 05:27:57;;;;;;;1.03;0.90;;;21.70;55.20;;;;;;5011745;28;20462;-75
2023/04/02 05:30:47;;;;;;;0.70;0.70;;;21.70;55.20;;;;;;5012360;28;20512;-76
2023/04/02 05:33:23;;;;;;;0.60;0.57;;;21.70;55.20;;;;;;5013124;28;20980;-76
2023/04/02 05:35:58;;;;;;;0.70;0.70;;;21.70;55.20;;;;;;5014551;28;20552;-80
2023/04/02 05:38:30;;;;;;;0.83;0.83;;;21.70;55.20;;;;;;5032525;28;20437;-76
2023/04/02 05:41:05;;;;;;;1.30;0.60;;;21.70;55.20;;;;;;5014583;28;20447;-76
2023/04/02 05:43:36;;;;;;;0.60;0.60;;;21.70;55.10;;;;;;5013795;28;20453;-80
2023/04/02 05:46:16;;;;;;;0.70;0.70;;;21.70;55.20;;;;;;5013895;28;20459;-75
2023/04/02 05:48:51;;;;;;;0.60;0.57;;;21.70;55.20;;;;;;5013991;28;20811;-76
2023/04/02 05:51:24;;;;;;;0.63;0.57;;;21.70;55.20;;;;;;5013684;28;20522;-76
2023/04/02 05:53:58;;;;;;;0.53;0.53;;;21.70;55.20;;;;;;5023925;28;20455;-79
2023/04/02 05:56:30;;;;;;;0.60;0.57;;;21.70;55.20;;;;;;5014382;28;20463;-75
2023/04/02 05:59:07;;;;;;;0.73;0.60;;;21.70;55.20;;;;;;5014029;28;20625;-79
2023/04/02 06:01:44;;;;;;;0.60;0.60;;;21.70;55.10;;;;;;5030055;28;21167;-76
2023/04/02 06:04:28;;;;;;;0.67;0.63;;;21.80;55.10;;;;;;5011159;28;20453;-76
2023/04/02 06:07:01;;;;;;;0.50;0.50;;;21.80;55.10;;;;;;5026207;28;20506;-76
2023/04/02 06:09:38;;;;;;;0.63;0.63;;;21.80;55.00;;;;;;5031385;28;20480;-76
2023/04/02 06:12:19;;;;;;;0.80;0.70;;;21.80;55.00;;;;;;5013405;28;21070;-77
2023/04/02 06:14:48;;;;;;;0.43;0.40;;;21.80;55.00;;;;;;5013723;28;20482;-77
2023/04/02 06:17:19;;;;;;;0.50;0.50;;;21.80;55.00;;;;;;5030877;28;20457;-76
2023/04/02 06:19:48;;;;;;;0.60;0.60;;;21.80;55.00;;;;;;5013914;28;20454;-76
2023/04/02 06:22:23;;;;;;;0.90;0.90;;;21.80;55.00;;;;;;5032087;28;20485;-77
2023/04/02 06:25:02;;;;;;;0.60;0.60;;;21.80;55.00;;;;;;5014511;28;20879;-76
2023/04/02 06:27:38;;;;;;;0.50;0.50;;;21.80;55.00;;;;;;5012067;28;20458;-76
2023/04/02 06:30:16;;;;;;;0.90;0.70;;;21.80;55.00;;;;;;4993407;28;21021;-75
2023/04/02 06:32:47;;;;;;;0.60;0.60;;;21.80;55.00;;;;;;5006553;28;20474;-75
2023/04/02 06:35:17;;;;;;;0.87;0.70;;;21.80;55.00;;;;;;5031397;28;20438;-76
2023/04/02 06:37:57;;;;;;;0.60;0.50;;;21.80;54.90;;;;;;5013555;28;20512;-77
2023/04/02 06:40:39;;;;;;;1.00;0.60;;;21.80;54.90;;;;;;5031679;28;20445;-77
2023/04/02 06:43:26;;;;;;;0.50;0.50;;;21.80;54.90;;;;;;4993001;28;20551;-76
2023/04/02 06:46:03;;;;;;;0.77;0.50;;;21.80;54.90;;;;;;5022165;28;20512;-77
2023/04/02 06:48:41;;;;;;;1.57;0.80;;;21.80;54.90;;;;;;5013766;28;20544;-79
2023/04/02 06:51:12;;;;;;;0.70;0.70;;;21.80;54.90;;;;;;5031008;28;20520;-76
2023/04/02 06:53:44;;;;;;;0.57;0.57;;;21.80;54.90;;;;;;5006424;28;20462;-75
2023/04/02 06:56:25;;;;;;;0.60;0.50;;;21.80;54.90;;;;;;5013835;28;20459;-76
2023/04/02 06:58:54;;;;;;;1.13;0.60;;;21.80;54.90;;;;;;5012418;28;20476;-81
2023/04/02 07:01:27;;;;;;;0.80;0.70;;;21.80;54.90;;;;;;5029152;28;20536;-79
2023/04/02 07:03:56;;;;;;;0.70;0.70;;;21.80;54.80;;;;;;5013056;28;20544;-76
2023/04/02 07:06:29;;;;;;;0.90;0.70;;;21.90;54.80;;;;;;5013484;28;20451;-79
2023/04/02 07:09:00;;;;;;;0.83;0.83;;;21.90;54.80;;;;;;5013344;28;20817;-75
2023/04/02 07:11:30;;;;;;;1.63;0.70;;;21.90;54.70;;;;;;5013569;28;20506;-76
2023/04/02 07:14:01;;;;;;;0.63;0.63;;;21.90;54.70;;;;;;4997411;28;20547;-77
2023/04/02 07:16:32;;;;;;;0.67;0.67;;;21.90;54.60;;;;;;5025491;28;20867;-76
2023/04/02 07:19:02;;;;;;;0.60;0.60;;;21.90;54.60;;;;;;5006213;28;20486;-76
2023/04/02 07:21:33;;;;;;;0.63;0.50;;;22.00;54.60;;;;;;4993557;28;20496;-76
2023/04/02 07:24:01;;;;;;;0.70;0.60;;;22.00;54.60;;;;;;4999184;28;20456;-76
2023/04/02 07:26:31;;;;;;;0.40;0.40;;;22.00;54.60;;;;;;5028485;28;20446;-82
2023/04/02 07:28:59;;;;;;;1.27;0.67;;;22.00;54.60;;;;;;5030070;28;20432;-77
2023/04/02 07:31:28;;;;;;;0.50;0.50;;;22.00;54.60;;;;;;5028108;28;20534;-76
2023/04/02 07:33:59;;;;;;;0.40;0.40;;;22.00;54.60;;;;;;5012873;28;20891;-76
2023/04/02 07:36:28;;;;;;;0.83;0.70;;;22.00;54.60;;;;;;5030428;28;20427;-77
2023/04/02 07:38:57;;;;;;;0.90;0.90;;;22.00;54.60;;;;;;5030758;28;20846;-75
2023/04/02 07:41:26;;;;;;;0.67;0.60;;;22.00;54.60;;;;;;5031458;28;20476;-76
2023/04/02 07:43:55;;;;;;;0.43;0.43;;;22.00;54.50;;;;;;5008168;28;21386;-76
2023/04/02 07:46:25;;;;;;;1.93;0.70;;;22.00;54.50;;;;;;5012223;28;20455;-76
2023/04/02 07:48:53;;;;;;;0.80;0.80;;;22.00;54.50;;;;;;5026160;28;20462;-76
2023/04/02 07:51:26;;;;;;;0.60;0.60;;;22.00;54.50;;;;;;5030308;28;20565;-79
2023/04/02 07:53:54;;;;;;;0.77;0.77;;;22.00;54.40;;;;;;5030159;28;20455;-76
2023/04/02 07:56:25;;;;;;;0.63;0.60;;;22.00;54.40;;;;;;5030766;28;21016;-76
2023/04/02 07:58:55;;;;;;;0.60;0.60;;;22.00;54.40;;;;;;5029343;28;20969;-76
2023/04/02 08:01:25;;;;;;;0.50;0.50;;;22.00;54.40;;;;;;5030302;28;20521;-76
2023/04/02 08:03:55;;;;;;;0.70;0.50;;;22.10;54.40;;;;;;5027049;28;20959;-82
2023/04/02 08:06:24;;;;;;;0.60;0.57;;;22.10;54.40;;;;;;5010898;28;20452;-76
2023/04/02 08:08:53;;;;;;;0.77;0.63;;;22.10;54.40;;;;;;5010267;28;20435;-76
2023/04/02 08:11:21;;;;;;;0.60;0.60;;;22.10;54.40;;;;;;5025276;28;20494;-81
2023/04/02 08:13:49;;;;;;;0.50;0.50;;;22.10;54.50;;;;;;5013485;28;20806;-76
2023/04/02 08:16:18;;;;;;;0.60;0.60;;;22.10;54.40;;;;;;5033610;28;20489;-76
2023/04/02 08:18:47;;;;;;;0.50;0.50;;;22.10;54.40;;;;;;5030554;28;20491;-78
2023/04/02 08:21:15;;;;;;;0.90;0.73;;;22.10;54.40;;;;;;5033588;28;20465;-76
2023/04/02 08:23:44;;;;;;;0.77;0.77;;;22.10;54.30;;;;;;5032322;28;20439;-76
2023/04/02 08:26:17;;;;;;;1.03;0.67;;;22.20;54.30;;;;;;5013951;28;20479;-76
2023/04/02 08:28:45;;;;;;;0.60;0.60;;;22.20;54.30;;;;;;5018269;28;20452;-76
2023/04/02 08:31:13;;;;;;;0.53;0.53;;;22.20;54.20;;;;;;5034104;28;20565;-76
2023/04/02 08:33:43;;;;;;;0.50;0.50;;;22.20;54.20;;;;;;5033285;28;20443;-75
2023/04/02 08:36:15;;;;;;;0.60;0.60;;;22.20;54.20;;;;;;5033860;28;20451;-76
2023/04/02 08:38:43;;;;;;;0.90;0.60;;;22.20;54.20;;;;;;5033805;28;20439;-78
2023/04/02 08:41:22;;;;;;;0.60;0.53;;;22.20;54.20;;;;;;5022419;28;20491;-75
2023/04/02 08:44:07;;;;;;;0.80;0.80;;;22.20;54.20;;;;;;5014689;28;20931;-75
2023/04/02 08:46:43;;;;;;;0.70;0.60;;;22.20;54.20;;;;;;5032532;28;20455;-77
2023/04/02 08:49:15;;;;;;;0.70;0.60;;;22.20;54.20;;;;;;5033384;28;20967;-76
2023/04/02 08:51:45;;;;;;;0.67;0.57;;;22.20;54.20;;;;;;5033191;28;20638;-75
2023/04/02 08:54:21;;;;;;;0.60;0.60;;;22.20;54.20;;;;;;5033100;28;20543;-75
2023/04/02 08:56:55;;;;;;;0.60;0.60;;;22.30;54.10;;;;;;5033309;28;20537;-75
2023/04/02 08:59:31;;;;;;;0.70;0.67;;;22.30;54.10;;;;;;5032400;28;21677;-78
2023/04/02 09:02:16;;;;;;;0.60;0.60;;;22.30;54.10;;;;;;5031148;28;20473;-77
2023/04/02 09:04:45;;;;;;;0.50;0.50;;;22.30;54.00;;;;;;5031283;28;20456;-77
2023/04/02 09:07:16;;;;;;;0.60;0.50;;;22.30;54.00;;;;;;5032857;28;20468;-78
2023/04/02 09:09:48;;;;;;;0.60;0.60;;;22.40;54.00;;;;;;5033203;28;20456;-76
2023/04/02 09:12:19;;;;;;;0.53;0.53;;;22.40;53.90;;;;;;5032605;28;20836;-76
2023/04/02 09:15:00;;;;;;;0.50;0.50;;;22.40;53.90;;;;;;5007029;28;20477;-76
2023/04/02 09:17:28;;;;;;;0.60;0.60;;;22.40;53.90;;;;;;5033083;28;20424;-76
2023/04/02 09:20:17;;;;;;;0.90;0.77;;;22.40;53.90;;;;;;5032445;28;20452;-76
2023/04/02 09:22:49;;;;;;;0.67;0.67;;;22.40;53.90;;;;;;5032412;28;20517;-75
2023/04/02 09:25:20;;;;;;;1.03;0.70;;;22.40;53.90;;;;;;5024102;28;20475;-76
2023/04/02 09:27:49;;;;;;;1.03;0.93;;;22.40;53.90;;;;;;5012989;28;20913;-76
2023/04/02 09:30:30;;;;;;;0.70;0.70;;;22.40;53.90;;;;;;4994444;28;20452;-75
2023/04/02 09:33:01;;;;;;;0.73;0.60;;;22.40;53.90;;;;;;5018837;28;20487;-76
2023/04/02 09:35:32;;;;;;;0.50;0.50;;;22.40;53.90;;;;;;5031802;28;20435;-77
2023/04/02 09:38:21;;;;;;;0.70;0.70;;;22.40;53.90;;;;;;5025251;28;20575;-76
2023/04/02 09:40:58;;;;;;;1.27;0.50;;;22.50;53.90;;;;;;5013939;28;20860;-77
2023/04/02 09:43:27;;;;;;;0.60;0.60;;;22.50;53.90;;;;;;5029544;28;20455;-76
2023/04/02 09:45:59;;;;;;;0.67;0.67;;;22.50;53.80;;;;;;5032094;28;20997;-80
2023/04/02 09:48:30;;;;;;;1.13;1.03;;;22.60;53.80;;;;;;5032389;28;20803;-76
2023/04/02 09:51:12;;;;;;;0.67;0.60;;;22.60;53.70;;;;;;5013252;28;20444;-76
2023/04/02 09:53:41;;;;;;;1.00;0.97;;;22.60;53.70;;;;;;5031379;28;20471;-76
2023/04/02 09:56:12;;;;;;;1.07;0.70;;;22.60;53.70;;;;;;5019312;28;20487;-77
2023/04/02 09:58:42;;;;;;;1.30;0.77;;;22.60;53.50;;;;;;5031344;28;20437;-76
2023/04/02 10:01:29;;;;;;;0.70;0.70;;;22.60;53.50;;;;;;5031653;28;20444;-76
2023/04/02 10:03:58;;;;;;;0.53;0.53;;;22.60;53.50;;;;;;5028364;28;20444;-77
2023/04/02 10:06:30;;;;;;;0.60;0.60;;;22.60;53.50;;;;;;5012348;28;20452;-76
2023/04/02 10:09:18;;;;;;;0.80;0.80;;;22.60;53.60;;;;;;5023580;28;21011;-76
2023/04/02 10:11:47;;;;;;;0.90;0.50;;;22.60;53.50;;;;;;5031825;28;20459;-76
2023/04/02 10:14:19;;;;;;;0.60;0.60;;;22.60;53.50;;;;;;5026888;28;20469;-76
2023/04/02 10:16:51;;;;;;;0.77;0.67;;;22.60;53.60;;;;;;5019080;28;20939;-77
2023/04/02 10:19:29;;;;;;;0.53;0.43;;;22.60;53.60;;;;;;5031710;28;20431;-76
2023/04/02 10:22:03;;;;;;;0.60;0.60;;;22.50;53.70;;;;;;5031571;28;20427;-76
2023/04/02 10:24:31;;;;;;;0.60;0.57;;;22.50;53.70;;;;;;5026973;28;20523;-76
2023/04/02 10:27:16;;;;;;;0.83;0.47;;;22.50;53.80;;;;;;5009559;28;20551;-76
2023/04/02 10:30:09;;;;;;;0.53;0.53;;;22.50;53.80;;;;;;5030616;28;20519;-76
2023/04/02 10:32:42;;;;;;;0.70;0.50;;;22.40;53.90;;;;;;5030304;28;20475;-76
2023/04/02 10:35:19;;;;;;;0.67;0.67;;;22.40;53.90;;;;;;5031245;28;20467;-76
2023/04/02 10:38:14;;;;;;;0.80;0.80;;;22.40;54.00;;;;;;5031240;28;20935;-76
2023/04/02 10:40:49;;;;;;;0.87;0.60;;;22.40;54.00;;;;;;5030414;28;20460;-76
2023/04/02 10:43:37;;;;;;;0.70;0.70;;;22.40;54.00;;;;;;5030566;28;20431;-76
2023/04/02 10:46:10;;;;;;;0.70;0.60;;;22.40;54.00;;;;;;4994958;28;20453;-76
2023/04/02 10:48:48;;;;;;;0.67;0.67;;;22.40;54.00;;;;;;5002030;28;20485;-76
2023/04/02 10:51:32;;;;;;;0.60;0.60;;;22.40;54.00;;;;;;5020168;28;20479;-77
2023/04/02 10:54:12;;;;;;;0.60;0.60;;;22.40;54.00;;;;;;5019152;28;20976;-78
2023/04/02 10:56:43;;;;;;;0.67;0.67;;;22.40;54.00;;;;;;5031666;28;20436;-75
2023/04/02 10:59:22;;;;;;;0.90;0.90;;;22.40;54.00;;;;;;5030021;28;20914;-78
2023/04/02 11:01:52;;;;;;;0.67;0.50;;;22.40;54.00;;;;;;5030609;28;20462;-75
2023/04/02 11:04:26;;;;;;;0.70;0.60;;;22.40;54.10;;;;;;5027162;28;20484;-78
2023/04/02 11:06:59;;;;;;;0.50;0.50;;;22.30;54.10;;;;;;5011491;28;20536;-76
2023/04/02 11:09:43;;;;;;;0.60;0.60;;;22.30;54.10;;;;;;5012940;28;20940;-75
2023/04/02 11:12:21;;;;;;;0.50;0.50;;;22.30;54.10;;;;;;5031302;28;20459;-75
2023/04/02 11:14:50;;;;;;;0.70;0.70;;;22.30;54.20;;;;;;5022006;28;20539;-75
2023/04/02 11:17:19;;;;;;;0.50;0.50;;;22.30;54.20;;;;;;5010992;28;20449;-82
2023/04/02 11:19:48;;;;;;;1.13;0.60;;;22.20;54.20;;;;;;5014421;28;20498;-76
2023/04/02 11:22:17;;;;;;;0.50;0.50;;;22.20;54.20;;;;;;5013221;28;20514;-76
2023/04/02 11:24:48;;;;;;;0.73;0.73;;;22.20;54.20;;;;;;5030409;28;20528;-76
2023/04/02 11:27:25;;;;;;;0.70;0.70;;;22.20;54.30;;;;;;5030925;28;20776;-77
2023/04/02 11:30:01;;;;;;;0.70;0.70;;;22.20;54.30;;;;;;5028243;28;20529;-77
2023/04/02 11:32:34;;;;;;;0.70;0.70;;;22.20;54.30;;;;;;5030850;28;20432;-76
2023/04/02 11:35:39;;;;;;;0.50;0.50;;;22.20;54.40;;;;;;5030930;28;20458;-76
2023/04/02 11:38:49;;;;;;;0.60;0.60;;;22.20;54.30;;;;;;5013207;28;20951;-75
2023/04/02 11:41:52;;;;;;;0.83;0.73;;;22.30;54.30;;;;;;5028072;28;21021;-76
2023/04/02 11:44:25;;;;;;;0.50;0.50;;;22.30;54.30;;;;;;5026167;28;20877;-77
2023/04/02 11:47:13;;;;;;;1.00;0.90;;;22.30;54.20;;;;;;5030784;28;20855;-76
2023/04/02 11:50:00;;;;;;;0.77;0.73;;;22.30;54.20;;;;;;5030107;28;20487;-76
2023/04/02 11:52:35;;;;;;;0.80;0.80;;;22.30;54.20;;;;;;5016491;28;20534;-77
2023/04/02 11:55:23;;;;;;;0.50;0.50;;;22.30;54.20;;;;;;5033802;28;21012;-75
2023/04/02 11:58:10;;;;;;;0.40;0.40;;;22.30;54.20;;;;;;5034647;28;20443;-77
2023/04/02 12:01:13;;;;;;;0.60;0.60;;;22.30;54.20;;;;;;5034713;28;20435;-76
2023/04/02 12:04:21;;;;;;;0.50;0.50;;;22.30;54.20;;;;;;5033834;28;20424;-76
2023/04/02 12:07:06;;;;;;;0.70;0.70;;;22.30;54.20;;;;;;4993528;28;20517;-79
2023/04/02 12:09:46;;;;;;;0.50;0.50;;;22.30;54.20;;;;;;5027675;28;20966;-76
2023/04/02 12:12:25;;;;;;;0.60;0.60;;;22.30;54.20;;;;;;5033372;28;20531;-76
2023/04/02 12:14:55;;;;;;;0.63;0.40;;;22.30;54.20;;;;;;5025706;28;20472;-76
2023/04/02 12:17:29;;;;;;;0.90;0.90;;;22.30;54.20;;;;;;5014568;28;20472;-75
2023/04/02 12:20:00;;;;;;;0.70;0.70;;;22.30;54.30;;;;;;5027622;28;20854;-76
2023/04/02 12:22:32;;;;;;;0.60;0.60;;;22.30;54.30;;;;;;5033929;28;20448;-76
2023/04/02 12:25:03;;;;;;;0.50;0.50;;;22.30;54.30;;;;;;5025474;28;20783;-76
2023/04/02 12:27:31;;;;;;;0.77;0.77;;;22.30;54.20;;;;;;5013864;28;20520;-76
2023/04/02 12:30:14;;;;;;;0.50;0.50;;;22.40;54.20;;;;;;5029998;28;20955;-77
2023/04/02 12:32:45;;;;;;;0.63;0.63;;;22.40;54.20;;;;;;5026925;28;20439;-75
2023/04/02 12:35:28;;;;;;;1.23;0.80;;;22.40;54.10;;;;;;5023594;28;20498;-75
2023/04/02 12:37:57;;;;;;;0.70;0.70;;;22.40;54.10;;;;;;5014013;28;21060;-76
2023/04/02 12:40:26;;;;;;;0.63;0.63;;;22.50;54.10;;;;;;5023965;28;20448;-77
2023/04/02 12:42:54;;;;;;;0.70;0.63;;;22.50;54.00;;;;;;5015476;28;20947;-76
2023/04/02 12:45:24;;;;;;;0.70;0.70;;;22.50;54.00;;;;;;5024131;28;20471;-77
2023/04/02 12:47:58;;;;;;;0.57;0.57;;;22.50;54.00;;;;;;5033649;28;20524;-76
2023/04/02 12:50:26;;;;;;;0.60;0.60;;;22.40;54.00;;;;;;5032970;28;20444;-77
2023/04/02 12:52:57;;;;;;;0.60;0.60;;;22.40;54.00;;;;;;5033278;28;20490;-77
2023/04/02 12:55:26;;;;;;;0.57;0.57;;;22.40;54.00;;;;;;5033398;28;20983;-76
2023/04/02 12:57:56;;;;;;;0.60;0.60;;;22.40;54.00;;;;;;5033100;28;20456;-80
2023/04/02 13:00:33;;;;;;;0.63;0.63;;;22.40;54.00;;;;;;5032020;28;20483;-76
2023/04/02 13:03:22;;;;;;;0.87;0.70;;;22.40;54.10;;;;;;5033162;28;20421;-76
2023/04/02 13:05:53;;;;;;;0.60;0.57;;;22.40;54.10;;;;;;5018520;28;20444;-75
2023/04/02 13:08:26;;;;;;;0.60;0.60;;;22.40;54.10;;;;;;4999525;28;20476;-76
2023/04/02 13:10:57;;;;;;;0.80;0.80;;;22.40;54.10;;;;;;5026643;28;20459;-78
2023/04/02 13:13:28;;;;;;;0.60;0.60;;;22.40;54.20;;;;;;5026539;28;20498;-76
2023/04/02 13:16:03;;;;;;;0.60;0.60;;;22.40;54.20;;;;;;5032016;28;20462;-76
2023/04/02 13:18:34;;;;;;;0.60;0.60;;;22.40;54.20;;;;;;5032552;28;20995;-76
2023/04/02 13:21:04;;;;;;;0.90;0.80;;;22.40;54.20;;;;;;5033117;28;20518;-77
2023/04/02 13:23:35;;;;;;;0.87;0.87;;;22.40;54.20;;;;;;5032448;28;20483;-83
2023/04/02 13:26:15;;;;;;;0.80;0.80;;;22.40;54.20;;;;;;5017259;28;20445;-77